createdAt,value
2018-08-27T00:00:07.350Z,74.26
2018-08-27T00:02:36.736Z,74.73
2018-08-27T00:05:06.350Z,74.95
2018-08-27T00:07:35.755Z,74.77
2018-08-27T00:10:05.275Z,75.16
2018-08-27T00:12:34.676Z,75.51
2018-08-27T00:15:04.087Z,76.03
2018-08-27T00:17:33.516Z,76.88
2018-08-27T00:20:03.151Z,77.17
2018-08-27T00:22:32.562Z,77.92
2018-08-27T00:25:01.984Z,79.26
2018-08-27T00:27:31.638Z,80.11
2018-08-27T00:30:01.057Z,81.19
2018-08-27T00:32:30.540Z,80.76
2018-08-27T00:34:59.929Z,81.92
2018-08-27T00:37:29.499Z,82.40
2018-08-27T00:39:59.094Z,83.65
2018-08-27T00:42:28.535Z,84.05
2018-08-27T00:44:57.989Z,84.42
2018-08-27T00:47:27.526Z,84.31
2018-08-27T00:49:56.949Z,84.58
2018-08-27T00:52:26.543Z,85.10
2018-08-27T00:54:55.990Z,85.42
2018-08-27T00:57:25.398Z,86.09
2018-08-27T00:59:55.048Z,86.27
2018-08-27T01:02:24.483Z,85.96
2018-08-27T01:04:53.898Z,86.28
2018-08-27T01:07:23.505Z,87.51
2018-08-27T01:09:52.920Z,87.29
2018-08-27T01:12:22.353Z,87.19
2018-08-27T01:14:51.782Z,87.28
2018-08-27T01:17:21.190Z,87.48
2018-08-27T01:19:50.715Z,87.25
2018-08-27T01:22:20.177Z,87.38
2018-08-27T01:24:49.593Z,87.34
2018-08-27T01:27:19.137Z,88.11
2018-08-27T01:29:48.603Z,87.90
2018-08-27T01:32:23.130Z,87.99
2018-08-27T01:34:52.556Z,87.65
2018-08-27T01:37:22.001Z,88.35
2018-08-27T01:39:51.437Z,87.95
2018-08-27T01:42:21.527Z,88.47
2018-08-27T01:44:50.943Z,88.46
2018-08-27T01:47:20.442Z,89.09
2018-08-27T01:49:49.909Z,89.10
2018-08-27T01:52:19.334Z,88.73
2018-08-27T01:54:48.841Z,88.79
2018-08-27T01:57:18.220Z,89.20
2018-08-27T01:59:47.637Z,88.48
2018-08-27T02:02:17.006Z,88.70
2018-08-27T02:04:46.464Z,88.86
2018-08-27T02:07:15.894Z,88.88
2018-08-27T02:09:45.351Z,88.55
2018-08-27T02:12:14.768Z,88.84
2018-08-27T02:14:44.287Z,88.22
2018-08-27T02:17:13.807Z,87.15
2018-08-27T02:19:43.205Z,86.81
2018-08-27T02:22:12.755Z,85.94
2018-08-27T02:24:42.283Z,86.53
2018-08-27T02:27:11.734Z,86.18
2018-08-27T02:29:41.264Z,85.96
2018-08-27T02:32:10.705Z,86.75
2018-08-27T02:34:40.163Z,86.78
2018-08-27T02:37:09.840Z,86.89
2018-08-27T02:39:39.244Z,87.43
2018-08-27T02:42:08.659Z,87.64
2018-08-27T02:44:38.220Z,87.57
2018-08-27T02:47:07.686Z,87.87
2018-08-27T02:49:37.218Z,86.88
2018-08-27T02:52:06.650Z,87.24
2018-08-27T02:54:36.075Z,87.39
2018-08-27T02:57:05.662Z,87.68
2018-08-27T02:59:35.038Z,87.91
2018-08-27T03:02:04.464Z,87.42
2018-08-27T03:04:33.793Z,88.10
2018-08-27T03:07:03.207Z,87.91
2018-08-27T03:09:32.629Z,86.81
2018-08-27T03:12:02.142Z,87.18
2018-08-27T03:14:31.755Z,86.39
2018-08-27T03:17:01.186Z,86.80
2018-08-27T03:19:30.652Z,86.53
2018-08-27T03:22:00.021Z,87.02
2018-08-27T03:24:30.210Z,86.31
2018-08-27T03:26:59.618Z,86.91
2018-08-27T03:29:29.050Z,86.77
2018-08-27T03:31:58.669Z,86.21
2018-08-27T03:34:28.141Z,86.49
2018-08-27T03:36:57.571Z,87.09
2018-08-27T03:39:27.013Z,87.15
2018-08-27T03:41:56.557Z,87.18
2018-08-27T03:44:26.209Z,86.56
2018-08-27T03:46:55.621Z,87.18
2018-08-27T03:49:25.029Z,86.97
2018-08-27T03:51:54.622Z,86.76
2018-08-27T03:54:24.076Z,86.10
2018-08-27T03:56:53.547Z,86.59
2018-08-27T03:59:23.013Z,86.38
2018-08-27T04:01:52.466Z,86.45
2018-08-27T04:04:22.149Z,82.56
2018-08-27T04:06:51.602Z,82.97
2018-08-27T04:09:21.019Z,81.39
2018-08-27T04:11:50.645Z,81.85
2018-08-27T04:14:20.105Z,83.01
2018-08-27T04:16:49.584Z,85.02
2018-08-27T04:19:19.027Z,85.88
2018-08-27T04:21:48.494Z,87.14
2018-08-27T04:24:18.022Z,87.43
2018-08-27T04:26:47.430Z,88.97
2018-08-27T04:29:16.961Z,88.55
2018-08-27T04:31:46.389Z,88.50
2018-08-27T04:34:15.878Z,89.47
2018-08-27T04:36:45.508Z,89.85
2018-08-27T04:39:14.928Z,89.56
2018-08-27T04:41:44.369Z,89.25
2018-08-27T04:44:14.055Z,90.68
2018-08-27T04:46:43.455Z,90.56
2018-08-27T04:49:13.528Z,91.83
2018-08-27T04:51:42.899Z,92.43
2018-08-27T04:54:12.363Z,92.67
2018-08-27T04:56:41.836Z,92.67
2018-08-27T04:59:14.484Z,91.98
2018-08-27T05:01:43.949Z,91.62
2018-08-27T05:04:13.387Z,92.17
2018-08-27T05:06:42.768Z,92.19
2018-08-27T05:09:12.638Z,92.44
2018-08-27T05:11:42.023Z,92.58
2018-08-27T05:14:12.044Z,93.16
2018-08-27T05:16:41.514Z,94.07
2018-08-27T05:19:10.939Z,93.60
2018-08-27T05:21:40.322Z,94.09
2018-08-27T05:24:09.726Z,93.72
2018-08-27T05:26:39.233Z,94.47
2018-08-27T05:29:08.645Z,94.46
2018-08-27T05:31:38.085Z,94.85
2018-08-27T05:34:07.492Z,94.95
2018-08-27T05:36:36.967Z,95.19
2018-08-27T05:39:09.354Z,95.44
2018-08-27T05:41:38.994Z,95.73
2018-08-27T05:44:08.403Z,95.52
2018-08-27T05:46:37.856Z,94.94
2018-08-27T05:49:07.277Z,95.93
2018-08-27T05:51:36.679Z,95.71
2018-08-27T05:54:06.175Z,95.47
2018-08-27T05:56:35.640Z,96.33
2018-08-27T05:59:05.083Z,96.55
2018-08-27T06:01:34.769Z,96.30
2018-08-27T06:04:04.288Z,96.19
2018-08-27T06:06:33.753Z,95.92
2018-08-27T06:09:03.261Z,96.05
2018-08-27T06:11:32.678Z,96.46
2018-08-27T06:14:02.153Z,96.30
2018-08-27T06:16:31.625Z,95.89
2018-08-27T06:19:01.099Z,95.47
2018-08-27T06:21:30.857Z,94.95
2018-08-27T06:24:00.640Z,93.81
2018-08-27T06:26:30.110Z,93.84
2018-08-27T06:28:59.527Z,94.64
2018-08-27T06:31:28.985Z,93.95
2018-08-27T06:33:58.456Z,93.55
2018-08-27T06:36:27.877Z,93.86
2018-08-27T06:38:57.271Z,92.92
2018-08-27T06:41:26.780Z,92.78
2018-08-27T06:43:56.214Z,93.89
2018-08-27T06:46:25.594Z,93.46
2018-08-27T06:48:55.068Z,92.49
2018-08-27T06:51:24.460Z,92.83
2018-08-27T06:53:54.179Z,93.49
2018-08-27T06:56:23.706Z,93.10
2018-08-27T06:58:53.122Z,92.62
2018-08-27T07:01:22.590Z,93.46
2018-08-27T07:03:52.398Z,92.52
2018-08-27T07:06:21.855Z,92.87
2018-08-27T07:08:51.260Z,92.17
2018-08-27T07:11:20.748Z,92.37
2018-08-27T07:13:50.131Z,92.81
2018-08-27T07:16:19.549Z,92.44
2018-08-27T07:18:48.996Z,92.93
2018-08-27T07:21:18.432Z,93.03
2018-08-27T07:23:47.901Z,93.45
2018-08-27T07:26:17.377Z,93.30
2018-08-27T07:28:46.836Z,92.80
2018-08-27T07:31:16.304Z,93.39
2018-08-27T07:33:45.710Z,93.35
2018-08-27T07:36:15.285Z,93.41
2018-08-27T07:38:44.645Z,94.01
2018-08-27T07:41:14.131Z,94.55
2018-08-27T07:43:44.603Z,93.78
2018-08-27T07:46:14.144Z,94.49
2018-08-27T07:48:43.586Z,94.21
2018-08-27T07:51:13.057Z,94.63
2018-08-27T07:53:42.455Z,94.36
2018-08-27T07:56:11.914Z,93.80
2018-08-27T07:58:42.751Z,93.90
2018-08-27T08:01:12.162Z,93.79
2018-08-27T08:03:41.631Z,93.80
2018-08-27T08:06:11.073Z,94.29
2018-08-27T08:08:40.825Z,93.70
2018-08-27T08:11:10.287Z,93.97
2018-08-27T08:13:39.791Z,94.09
2018-08-27T08:16:09.226Z,94.74
2018-08-27T08:18:38.717Z,94.14
2018-08-27T08:21:08.184Z,94.11
2018-08-27T08:23:37.675Z,94.45
2018-08-27T08:26:07.159Z,94.50
2018-08-27T08:28:36.610Z,94.18
2018-08-27T08:31:06.318Z,94.49
2018-08-27T08:33:35.711Z,95.18
2018-08-27T08:36:05.220Z,95.07
2018-08-27T08:38:34.691Z,95.18
2018-08-27T08:41:04.141Z,94.40
2018-08-27T08:43:33.545Z,95.22
2018-08-27T08:46:03.057Z,94.33
2018-08-27T08:48:32.501Z,94.92
2018-08-27T08:51:01.968Z,95.40
2018-08-27T08:53:31.435Z,95.28
2018-08-27T08:56:01.068Z,94.84
2018-08-27T08:58:30.474Z,94.90
2018-08-27T09:00:59.976Z,94.94
2018-08-27T09:03:29.646Z,94.56
2018-08-27T09:05:59.090Z,95.66
2018-08-27T09:08:28.645Z,94.73
2018-08-27T09:10:57.966Z,94.84
2018-08-27T09:13:27.442Z,94.13
2018-08-27T09:15:56.857Z,94.37
2018-08-27T09:18:26.269Z,94.45
2018-08-27T09:20:55.726Z,93.96
2018-08-27T09:23:25.165Z,94.16
2018-08-27T09:25:54.639Z,93.24
2018-08-27T09:28:24.014Z,93.10
2018-08-27T09:30:53.438Z,93.26
2018-08-27T09:33:22.851Z,92.82
2018-08-27T09:35:52.323Z,92.82
2018-08-27T09:38:21.855Z,92.44
2018-08-27T09:40:51.239Z,92.85
2018-08-27T09:43:20.716Z,92.92
2018-08-27T09:45:50.163Z,92.02
2018-08-27T09:48:19.573Z,92.58
2018-08-27T09:50:49.008Z,92.40
2018-08-27T09:53:18.769Z,92.72
2018-08-27T09:55:48.248Z,93.18
2018-08-27T09:58:17.672Z,92.97
2018-08-27T10:00:52.231Z,91.76
2018-08-27T10:03:21.650Z,91.32
2018-08-27T10:05:51.073Z,90.90
2018-08-27T10:08:20.567Z,91.68
2018-08-27T10:10:50.075Z,91.64
2018-08-27T10:13:19.484Z,90.92
2018-08-27T10:15:48.957Z,91.50
2018-08-27T10:18:18.381Z,91.96
2018-08-27T10:20:47.857Z,92.29
2018-08-27T10:23:17.358Z,92.73
2018-08-27T10:25:46.842Z,92.53
2018-08-27T10:28:16.214Z,92.58
2018-08-27T10:30:45.694Z,93.13
2018-08-27T10:33:15.109Z,93.84
2018-08-27T10:35:44.591Z,93.09
2018-08-27T10:38:14.055Z,93.29
2018-08-27T10:40:43.469Z,93.14
2018-08-27T10:43:12.945Z,93.53
2018-08-27T10:45:42.375Z,93.32
2018-08-27T10:48:11.818Z,93.40
2018-08-27T10:50:41.247Z,93.42
2018-08-27T10:53:10.654Z,93.62
2018-08-27T10:55:40.093Z,93.50
2018-08-27T10:58:09.613Z,93.71
2018-08-27T11:00:39.052Z,93.58
2018-08-27T11:03:08.464Z,94.55
2018-08-27T11:05:37.950Z,93.48
2018-08-27T11:08:07.487Z,94.02
2018-08-27T11:10:36.990Z,94.02
2018-08-27T11:13:06.631Z,94.53
2018-08-27T11:15:36.162Z,94.09
2018-08-27T11:18:05.876Z,93.48
2018-08-27T11:20:35.536Z,93.89
2018-08-27T11:23:04.979Z,94.66
2018-08-27T11:25:34.358Z,94.64
2018-08-27T11:28:03.854Z,93.75
2018-08-27T11:30:33.328Z,94.59
2018-08-27T11:33:02.802Z,94.60
2018-08-27T11:35:32.165Z,94.62
2018-08-27T11:38:01.621Z,94.27
2018-08-27T11:40:31.010Z,95.17
2018-08-27T11:43:00.934Z,94.87
2018-08-27T11:45:30.465Z,95.68
2018-08-27T11:48:00.174Z,95.11
2018-08-27T11:50:29.733Z,94.73
2018-08-27T11:52:59.257Z,94.89
2018-08-27T11:55:29.171Z,94.57
2018-08-27T11:57:58.597Z,95.09
2018-08-27T12:00:33.190Z,96.01
2018-08-27T12:03:02.644Z,95.21
2018-08-27T12:05:32.142Z,95.48
2018-08-27T12:08:01.652Z,95.25
2018-08-27T12:10:31.097Z,95.41
2018-08-27T12:13:00.522Z,95.70
2018-08-27T12:15:30.046Z,95.54
2018-08-27T12:17:59.407Z,95.26
2018-08-27T12:20:29.866Z,95.78
2018-08-27T12:22:59.255Z,95.81
2018-08-27T12:25:28.664Z,96.05
2018-08-27T12:27:58.173Z,95.69
2018-08-27T12:30:27.632Z,95.78
2018-08-27T12:32:57.079Z,96.23
2018-08-27T12:35:26.623Z,96.24
2018-08-27T12:37:56.671Z,96.13
2018-08-27T12:40:26.069Z,95.85
2018-08-27T12:42:55.587Z,96.09
2018-08-27T12:45:25.024Z,96.66
2018-08-27T12:47:54.503Z,96.41
2018-08-27T12:50:24.103Z,96.18
2018-08-27T12:52:53.601Z,95.82
2018-08-27T12:55:23.030Z,95.95
2018-08-27T12:57:52.473Z,96.03
2018-08-27T13:00:21.941Z,95.51
2018-08-27T13:02:51.510Z,95.75
2018-08-27T13:05:20.928Z,95.84
2018-08-27T13:07:50.529Z,95.73
2018-08-27T13:10:20.275Z,95.79
2018-08-27T13:12:50.219Z,95.46
2018-08-27T13:15:19.606Z,95.21
2018-08-27T13:17:48.999Z,95.63
2018-08-27T13:20:18.426Z,95.56
2018-08-27T13:22:47.835Z,94.77
2018-08-27T13:25:17.403Z,95.11
2018-08-27T13:27:46.830Z,94.71
2018-08-27T13:30:16.400Z,94.81
2018-08-27T13:32:45.956Z,94.69
2018-08-27T13:35:15.393Z,94.73
2018-08-27T13:37:44.887Z,94.07
2018-08-27T13:40:15.118Z,93.80
2018-08-27T13:42:44.727Z,93.87
2018-08-27T13:45:14.226Z,93.28
2018-08-27T13:47:43.658Z,92.80
2018-08-27T13:50:13.195Z,93.62
2018-08-27T13:52:42.674Z,92.95
2018-08-27T13:55:12.382Z,93.20
2018-08-27T13:57:41.776Z,92.68
2018-08-27T14:00:16.504Z,93.18
2018-08-27T14:02:45.955Z,92.56
2018-08-27T14:05:15.480Z,92.31
2018-08-27T14:07:44.954Z,92.57
2018-08-27T14:10:14.698Z,92.45
2018-08-27T14:12:44.355Z,92.88
2018-08-27T14:15:13.914Z,93.59
2018-08-27T14:17:43.297Z,94.86
2018-08-27T14:20:12.894Z,94.71
2018-08-27T14:22:42.330Z,95.04
2018-08-27T14:25:11.859Z,94.45
2018-08-27T14:27:41.279Z,95.07
2018-08-27T14:30:10.762Z,94.46
2018-08-27T14:32:40.251Z,94.26
2018-08-27T14:35:09.858Z,94.59
2018-08-27T14:37:39.324Z,94.46
2018-08-27T14:40:09.235Z,95.00
2018-08-27T14:42:38.746Z,94.37
2018-08-27T14:45:08.944Z,94.73
2018-08-27T14:47:38.523Z,95.10
2018-08-27T14:50:08.167Z,95.00
2018-08-27T14:52:37.657Z,95.23
2018-08-27T14:55:07.264Z,95.60
2018-08-27T14:57:36.652Z,95.51
2018-08-27T15:00:06.498Z,94.99
2018-08-27T15:02:35.885Z,94.42
2018-08-27T15:05:05.530Z,95.56
2018-08-27T15:07:34.968Z,94.89
2018-08-27T15:10:04.429Z,95.18
2018-08-27T15:12:33.891Z,94.38
2018-08-27T15:15:03.336Z,94.84
2018-08-27T15:17:32.793Z,94.34
2018-08-27T15:20:02.237Z,93.97
2018-08-27T15:22:31.726Z,93.45
2018-08-27T15:25:01.215Z,93.16
2018-08-27T15:27:30.697Z,93.70
2018-08-27T15:30:00.142Z,93.13
2018-08-27T15:32:29.693Z,93.42
2018-08-27T15:34:59.225Z,92.97
2018-08-27T15:37:28.807Z,93.04
2018-08-27T15:39:58.121Z,92.59
2018-08-27T15:42:27.541Z,93.17
2018-08-27T15:44:59.671Z,93.21
2018-08-27T15:47:29.103Z,92.57
2018-08-27T15:49:58.723Z,93.00
2018-08-27T15:52:28.134Z,92.37
2018-08-27T15:54:57.566Z,92.39
2018-08-27T15:57:27.055Z,91.98
2018-08-27T15:59:56.528Z,91.46
2018-08-27T16:02:26.177Z,91.20
2018-08-27T16:04:55.641Z,91.12
2018-08-27T16:07:26.028Z,91.17
2018-08-27T16:09:55.552Z,91.28
2018-08-27T16:12:24.992Z,91.58
2018-08-27T16:14:54.391Z,91.90
2018-08-27T16:17:24.351Z,91.43
2018-08-27T16:19:54.311Z,91.76
2018-08-27T16:22:23.768Z,91.73
2018-08-27T16:24:53.250Z,91.38
2018-08-27T16:27:22.699Z,91.15
2018-08-27T16:29:52.111Z,91.29
2018-08-27T16:32:21.588Z,92.26
2018-08-27T16:34:51.471Z,91.84
2018-08-27T16:37:20.963Z,91.41
2018-08-27T16:39:50.604Z,91.95
2018-08-27T16:42:20.005Z,91.40
2018-08-27T16:44:49.451Z,91.48
2018-08-27T16:47:18.915Z,91.69
2018-08-27T16:49:48.452Z,91.05
2018-08-27T16:52:18.022Z,91.30
2018-08-27T16:54:47.532Z,91.77
2018-08-27T16:57:17.019Z,91.36
2018-08-27T16:59:46.544Z,91.51
2018-08-27T17:02:16.015Z,91.70
2018-08-27T17:04:45.466Z,92.02
2018-08-27T17:07:14.906Z,92.20
2018-08-27T17:09:44.503Z,91.67
2018-08-27T17:12:13.919Z,92.04
2018-08-27T17:14:43.375Z,92.47
2018-08-27T17:17:12.885Z,92.44
2018-08-27T17:19:42.330Z,92.30
2018-08-27T17:22:11.742Z,91.95
2018-08-27T17:24:45.177Z,92.30
2018-08-27T17:27:15.911Z,92.59
2018-08-27T17:29:45.310Z,92.61
2018-08-27T17:32:15.113Z,92.57
2018-08-27T17:34:44.564Z,92.27
2018-08-27T17:37:14.075Z,92.25
2018-08-27T17:39:43.575Z,92.58
2018-08-27T17:42:12.931Z,92.43
2018-08-27T17:44:42.420Z,92.61
2018-08-27T17:47:11.905Z,92.77
2018-08-27T17:49:41.269Z,93.09
2018-08-27T17:52:10.733Z,93.17
2018-08-27T17:54:40.688Z,93.33
2018-08-27T17:57:10.331Z,93.66
2018-08-27T17:59:39.818Z,93.20
2018-08-27T18:02:09.283Z,93.23
2018-08-27T18:04:38.766Z,93.21
2018-08-27T18:07:08.673Z,93.55
2018-08-27T18:09:38.694Z,94.05
2018-08-27T18:12:10.128Z,94.00
2018-08-27T18:14:39.535Z,94.00
2018-08-27T18:17:08.940Z,94.76
2018-08-27T18:19:38.478Z,94.26
2018-08-27T18:22:08.084Z,94.67
2018-08-27T18:24:38.150Z,94.57
2018-08-27T18:27:07.837Z,94.77
2018-08-27T18:29:37.299Z,95.08
2018-08-27T18:32:06.829Z,95.17
2018-08-27T18:34:36.241Z,95.81
2018-08-27T18:37:05.736Z,95.72
2018-08-27T18:39:35.821Z,96.32
2018-08-27T18:42:05.306Z,96.38
2018-08-27T18:44:35.063Z,95.97
2018-08-27T18:47:06.505Z,96.10
2018-08-27T18:49:37.064Z,96.26
2018-08-27T18:52:07.905Z,97.10
2018-08-27T18:54:37.574Z,97.10
2018-08-27T18:57:08.114Z,96.44
2018-08-27T18:59:38.682Z,96.91
2018-08-27T19:02:08.404Z,97.26
2018-08-27T19:04:37.870Z,97.49
2018-08-27T19:07:07.394Z,97.92
2018-08-27T19:09:36.840Z,97.85
2018-08-27T19:12:06.289Z,97.61
2018-08-27T19:14:35.795Z,98.00
2018-08-27T19:17:05.272Z,97.40
2018-08-27T19:19:34.799Z,97.66
2018-08-27T19:22:04.256Z,97.48
2018-08-27T19:24:33.845Z,97.70
2018-08-27T19:27:03.208Z,97.19
2018-08-27T19:29:32.744Z,96.49
2018-08-27T19:32:02.163Z,96.20
2018-08-27T19:34:31.641Z,96.63
2018-08-27T19:37:01.225Z,96.41
2018-08-27T19:39:31.727Z,96.45
2018-08-27T19:42:01.151Z,95.88
2018-08-27T19:44:30.612Z,96.40
2018-08-27T19:47:00.156Z,96.02
2018-08-27T19:49:29.579Z,96.12
2018-08-27T19:51:59.128Z,96.85
2018-08-27T19:54:28.608Z,96.26
2018-08-27T19:56:58.086Z,96.02
2018-08-27T19:59:27.486Z,96.69
2018-08-27T20:01:56.942Z,95.77
2018-08-27T20:04:26.489Z,96.20
2018-08-27T20:06:56.428Z,96.24
2018-08-27T20:09:26.021Z,96.37
2018-08-27T20:11:55.645Z,95.88
2018-08-27T20:14:25.050Z,95.72
2018-08-27T20:16:54.629Z,95.52
2018-08-27T20:19:24.202Z,95.77
2018-08-27T20:21:53.683Z,95.61
2018-08-27T20:24:23.122Z,95.09
2018-08-27T20:26:52.610Z,95.48
2018-08-27T20:29:22.045Z,95.39
2018-08-27T20:31:51.489Z,94.39
2018-08-27T20:34:20.931Z,94.81
2018-08-27T20:36:50.537Z,94.95
2018-08-27T20:39:20.178Z,94.52
2018-08-27T20:41:49.502Z,94.52
2018-08-27T20:44:19.057Z,94.28
2018-08-27T20:46:48.502Z,94.87
2018-08-27T20:49:17.919Z,94.84
2018-08-27T20:51:47.530Z,94.82
2018-08-27T20:54:16.956Z,94.31
2018-08-27T20:56:46.398Z,94.45
2018-08-27T20:59:16.375Z,94.22
2018-08-27T21:01:45.915Z,94.16
2018-08-27T21:04:15.893Z,94.19
2018-08-27T21:06:45.771Z,93.79
2018-08-27T21:09:15.752Z,93.51
2018-08-27T21:11:45.159Z,93.52
2018-08-27T21:15:18.530Z,93.89
2018-08-27T21:17:51.006Z,93.58
2018-08-27T21:20:21.279Z,93.75
2018-08-27T21:22:51.403Z,93.58
2018-08-27T21:25:21.876Z,93.20
2018-08-27T21:27:51.851Z,93.65
2018-08-27T21:30:22.178Z,93.49
2018-08-27T21:32:51.600Z,93.85
2018-08-27T21:35:21.080Z,93.75
2018-08-27T21:37:50.596Z,93.25
2018-08-27T21:40:20.189Z,93.40
2018-08-27T21:42:49.565Z,93.00
2018-08-27T21:45:18.973Z,93.78
2018-08-27T21:47:48.940Z,93.06
2018-08-27T21:50:18.867Z,93.31
2018-08-27T21:52:48.295Z,94.10
2018-08-27T21:55:17.705Z,93.45
2018-08-27T21:57:47.083Z,94.04
2018-08-27T22:00:16.540Z,93.54
2018-08-27T22:02:51.115Z,93.92
2018-08-27T22:05:20.570Z,93.90
2018-08-27T22:07:50.118Z,93.66
2018-08-27T22:10:19.630Z,93.25
2018-08-27T22:12:49.060Z,93.88
2018-08-27T22:15:18.461Z,93.61
2018-08-27T22:17:48.020Z,93.37
2018-08-27T22:20:17.637Z,93.13
2018-08-27T22:22:47.098Z,93.76
2018-08-27T22:25:16.611Z,93.97
2018-08-27T22:27:46.052Z,94.15
2018-08-27T22:30:15.512Z,93.91
2018-08-27T22:32:44.935Z,93.51
2018-08-27T22:35:14.376Z,94.03
2018-08-27T22:37:43.882Z,94.63
2018-08-27T22:40:13.810Z,94.87
2018-08-27T22:42:43.707Z,94.77
2018-08-27T22:45:13.103Z,94.42
2018-08-27T22:47:42.516Z,95.06
2018-08-27T22:50:11.942Z,94.45
2018-08-27T22:52:41.355Z,94.07
2018-08-27T22:55:10.844Z,93.78
2018-08-27T22:57:40.714Z,93.88
2018-08-27T23:00:10.180Z,93.94
2018-08-27T23:02:44.794Z,94.02
2018-08-27T23:05:14.167Z,94.61
2018-08-27T23:07:43.594Z,93.78
2018-08-27T23:10:12.961Z,94.81
2018-08-27T23:12:42.378Z,94.83
2018-08-27T23:15:11.770Z,94.47
2018-08-27T23:17:41.339Z,94.09
2018-08-27T23:20:10.922Z,94.51
2018-08-27T23:22:40.373Z,94.29
2018-08-27T23:25:09.920Z,94.08
2018-08-27T23:27:39.425Z,94.38
2018-08-27T23:30:08.884Z,94.68
2018-08-27T23:32:38.308Z,93.99
2018-08-27T23:35:07.758Z,93.97
2018-08-27T23:37:37.246Z,93.52
2018-08-27T23:40:07.651Z,93.45
2018-08-27T23:42:37.053Z,93.86
2018-08-27T23:45:06.559Z,93.31
2018-08-27T23:47:35.887Z,93.79
2018-08-27T23:50:05.784Z,93.17
2018-08-27T23:52:35.363Z,93.42
2018-08-27T23:55:05.242Z,93.13
2018-08-27T23:57:34.775Z,93.14
